Wind From: 13-12-2017 10:08 Until: 14-12-2017 06:00 warning for: Wind Level: Yellow info button

Although rather usual in this region, locally or potentially dangerous phenomena are expected. (such as local winds, summer thunderstorms, rising streams or high waves) Be aware and pay attention to the latest weather updates, especially if you carry out activities exposed to weather or close to a stream or shoreline. 


Meteo18 Weather Cam more information Meteo18 Weather Cam


Thunder radar more information blitzortung!


Rain radar more information rain snow radar


Visit our other weather sites:

Template documentation
and downloads

And another site



Weather Underground History page Text

Daily Summary for January 7, 2017 Units:  Metric    English   Both
« Previous Day
Next Day »
Daily Weekly Monthly Yearly Custom
  High: Low: Average:
Temperature: 0.4 °C -8.2 °C -3.5 °C
Dew Point: -1.0 °C -9.3 °C -5.5 °C
Humidity: 95 % 69 % 86 %
Wind Speed: 9.7 km/h 0.0 km/h 1.2 km/h
Wind Gust: 14.5 km/h - -
Wind:- - SW
Pressure: 1037.1 hPa 1033.7 hPa -
Precipitation: 0.0 mm    
Historical Graphs
 
 
Tabular Data for January 7, 2017
Time Temperature Dew Point Pressure Wind Wind Speed Wind Gust Humidity Rainfall Rate (Hourly)
00:07 -4.7 °C -6.7 °C 1037.1 hPa NW 1.6 km/h 3.2 km/h 86 % 0.0 mm
00:17 -4.7 °C -6.7 °C 1037.1 hPa NW 1.6 km/h 4.8 km/h 86 % 0.0 mm
00:22 -4.7 °C -6.8 °C 1036.8 hPa Calm   4.8 km/h 85 % 0.0 mm
00:27 -4.8 °C -6.8 °C 1036.8 hPa Calm   4.8 km/h 86 % 0.0 mm
00:32 -4.9 °C -6.9 °C 1036.8 hPa NNE 1.6 km/h 3.2 km/h 86 % 0.0 mm
00:37 -4.9 °C -6.9 °C 1036.8 hPa Calm   1.6 km/h 86 % 0.0 mm
00:47 -4.9 °C -6.9 °C 1036.8 hPa Calm   1.6 km/h 86 % 0.0 mm
00:52 -4.9 °C -6.9 °C 1036.8 hPa Calm   1.6 km/h 86 % 0.0 mm
00:57 -4.9 °C -6.9 °C 1036.8 hPa North 1.6 km/h 3.2 km/h 86 % 0.0 mm
01:02 -5.0 °C -7.0 °C 1036.8 hPa NNE 3.2 km/h 3.2 km/h 86 % 0.0 mm
01:07 -5.1 °C -7.1 °C 1036.8 hPa Calm   3.2 km/h 86 % 0.0 mm
01:12 -5.3 °C -7.1 °C 1036.8 hPa Calm   3.2 km/h 87 % 0.0 mm
01:17 -5.3 °C -7.1 °C 1036.8 hPa Calm   3.2 km/h 87 % 0.0 mm
01:22 -5.3 °C -7.1 °C 1036.8 hPa Calm   3.2 km/h 87 % 0.0 mm
01:27 -5.3 °C -7.1 °C 1036.8 hPa Calm   1.6 km/h 87 % 0.0 mm
01:32 -5.4 °C -7.4 °C 1036.5 hPa Calm   1.6 km/h 86 % 0.0 mm
01:37 -5.6 °C -7.4 °C 1036.8 hPa Calm   1.6 km/h 87 % 0.0 mm
01:42 -5.6 °C -7.4 °C 1036.5 hPa Calm   1.6 km/h 87 % 0.0 mm
01:47 -5.5 °C -7.3 °C 1036.8 hPa Calm     87 % 0.0 mm
01:52 -5.6 °C -7.4 °C 1036.8 hPa Calm     87 % 0.0 mm
01:57 -5.8 °C -7.6 °C 1036.8 hPa Calm     87 % 0.0 mm
02:02 -5.8 °C -7.5 °C 1036.8 hPa Calm     88 % 0.0 mm
02:12 -5.7 °C -7.4 °C 1036.8 hPa Calm   1.6 km/h 88 % 0.0 mm
02:17 -5.6 °C -7.4 °C 1036.8 hPa Calm   1.6 km/h 87 % 0.0 mm
02:22 -5.8 °C -7.5 °C 1036.8 hPa Calm   1.6 km/h 88 % 0.0 mm
02:27 -5.8 °C -7.5 °C 1036.8 hPa Calm   1.6 km/h 88 % 0.0 mm
02:37 -5.8 °C -7.5 °C 1036.8 hPa Calm   1.6 km/h 88 % 0.0 mm
02:42 -5.7 °C -7.4 °C 1036.5 hPa Calm   1.6 km/h 88 % 0.0 mm
02:47 -5.9 °C -7.7 °C 1036.5 hPa Calm   1.6 km/h 87 % 0.0 mm
02:52 -6.1 °C -7.8 °C 1036.5 hPa Calm   1.6 km/h 88 % 0.0 mm
02:57 -6.1 °C -7.6 °C 1036.5 hPa Calm   1.6 km/h 89 % 0.0 mm
03:02 -6.1 °C -7.6 °C 1036.8 hPa Calm   1.6 km/h 89 % 0.0 mm
03:07 -6.2 °C -7.7 °C 1036.8 hPa Calm   1.6 km/h 89 % 0.0 mm
03:12 -6.2 °C -7.7 °C 1036.8 hPa Calm     89 % 0.0 mm
03:17 -6.2 °C -7.7 °C 1036.8 hPa Calm   1.6 km/h 89 % 0.0 mm
03:22 -6.2 °C -7.7 °C 1036.8 hPa Calm   1.6 km/h 89 % 0.0 mm
03:27 -6.2 °C -7.7 °C 1036.8 hPa Calm   1.6 km/h 89 % 0.0 mm
03:32 -6.2 °C -7.7 °C 1036.5 hPa Calm   1.6 km/h 89 % 0.0 mm
03:42 -6.1 °C -7.6 °C 1036.5 hPa Calm   1.6 km/h 89 % 0.0 mm
03:47 -6.1 °C -7.6 °C 1036.5 hPa Calm   1.6 km/h 89 % 0.0 mm
03:52 -6.1 °C -7.8 °C 1036.5 hPa Calm   1.6 km/h 88 % 0.0 mm
03:57 -6.2 °C -7.9 °C 1036.5 hPa Calm     88 % 0.0 mm
04:02 -6.4 °C -7.9 °C 1036.5 hPa Calm   1.6 km/h 89 % 0.0 mm
04:07 -6.6 °C -8.1 °C 1036.5 hPa Calm   1.6 km/h 89 % 0.0 mm
04:12 -6.7 °C -8.1 °C 1036.5 hPa Calm   1.6 km/h 90 % 0.0 mm
04:17 -6.8 °C -8.2 °C 1036.5 hPa WNW 1.6 km/h 1.6 km/h 90 % 0.0 mm
04:22 -7.0 °C -8.2 °C 1036.8 hPa Calm   1.6 km/h 91 % 0.0 mm
04:27 -6.9 °C -8.1 °C 1036.8 hPa Calm   1.6 km/h 91 % 0.0 mm
04:32 -6.9 °C -8.1 °C 1036.8 hPa Calm   1.6 km/h 91 % 0.0 mm
04:37 -6.8 °C -8.2 °C 1036.5 hPa Calm     90 % 0.0 mm
04:42 -6.9 °C -8.3 °C 1036.5 hPa Calm     90 % 0.0 mm
04:47 -7.2 °C -8.6 °C 1036.5 hPa Calm     90 % 0.0 mm
04:52 -7.1 °C -8.2 °C 1036.5 hPa Calm   1.6 km/h 92 % 0.0 mm
05:02 -7.0 °C -8.2 °C 1036.5 hPa WNW 1.6 km/h 1.6 km/h 91 % 0.0 mm
05:07 -7.2 °C -8.6 °C 1036.5 hPa Calm   1.6 km/h 90 % 0.0 mm
05:12 -7.5 °C -8.7 °C 1036.5 hPa Calm   1.6 km/h 91 % 0.0 mm
05:17 -7.4 °C -8.5 °C 1036.5 hPa Calm   1.6 km/h 92 % 0.0 mm
05:22 -7.2 °C -8.3 °C 1036.5 hPa Calm     92 % 0.0 mm
05:27 -7.4 °C -8.6 °C 1036.5 hPa Calm     91 % 0.0 mm
05:32 -7.3 °C -8.4 °C 1036.5 hPa Calm     92 % 0.0 mm
05:37 -7.2 °C -8.3 °C 1036.5 hPa Calm     92 % 0.0 mm
05:42 -7.1 °C -8.2 °C 1036.5 hPa Calm     92 % 0.0 mm
05:52 -7.1 °C -8.3 °C 1036.5 hPa Calm     91 % 0.0 mm
05:57 -7.1 °C -8.3 °C 1036.5 hPa Calm     91 % 0.0 mm
06:02 -7.2 °C -8.4 °C 1036.5 hPa Calm     91 % 0.0 mm
06:07 -7.2 °C -8.3 °C 1036.5 hPa Calm     92 % 0.0 mm
06:12 -7.2 °C -8.3 °C 1036.5 hPa Calm     92 % 0.0 mm
06:17 -7.3 °C -8.4 °C 1036.5 hPa Calm     92 % 0.0 mm
06:22 -7.3 °C -8.4 °C 1036.1 hPa Calm     92 % 0.0 mm
06:32 -7.5 °C -8.6 °C 1036.5 hPa Calm     92 % 0.0 mm
06:42 -7.7 °C -8.8 °C 1036.1 hPa Calm     92 % 0.0 mm
06:47 -7.9 °C -9.0 °C 1036.1 hPa Calm     92 % 0.0 mm
06:52 -7.9 °C -9.0 °C 1036.1 hPa Calm     92 % 0.0 mm
07:02 -7.9 °C -8.8 °C 1036.5 hPa Calm     93 % 0.0 mm
07:12 -7.7 °C -8.6 °C 1036.5 hPa Calm     93 % 0.0 mm
07:17 -7.6 °C -8.5 °C 1036.5 hPa Calm     93 % 0.0 mm
07:22 -7.7 °C -8.8 °C 1036.5 hPa Calm     92 % 0.0 mm
07:27 -7.8 °C -8.7 °C 1036.5 hPa Calm     93 % 0.0 mm
07:32 -7.7 °C -8.6 °C 1036.5 hPa Calm     93 % 0.0 mm
07:37 -7.7 °C -8.6 °C 1036.5 hPa Calm     93 % 0.0 mm
07:42 -7.8 °C -8.9 °C 1036.5 hPa Calm     92 % 0.0 mm
07:47 -7.7 °C -8.6 °C 1036.5 hPa Calm     93 % 0.0 mm
07:52 -7.9 °C -9.0 °C 1036.5 hPa Calm     92 % 0.0 mm
07:57 -8.0 °C -9.1 °C 1036.5 hPa Calm     92 % 0.0 mm
08:02 -8.0 °C -8.9 °C 1036.8 hPa Calm     93 % 0.0 mm
08:07 -7.9 °C -8.8 °C 1036.5 hPa Calm     93 % 0.0 mm
08:12 -7.9 °C -8.8 °C 1036.8 hPa North 1.6 km/h   93 % 0.0 mm
08:17 -7.8 °C -8.7 °C 1036.8 hPa Calm   1.6 km/h 93 % 0.0 mm
08:22 -7.6 °C -8.5 °C 1036.8 hPa Calm   1.6 km/h 93 % 0.0 mm
08:27 -7.7 °C -8.8 °C 1036.8 hPa Calm   1.6 km/h 92 % 0.0 mm
08:32 -7.9 °C -9.0 °C 1036.8 hPa Calm   1.6 km/h 92 % 0.0 mm
08:37 -8.1 °C -9.2 °C 1036.8 hPa Calm   1.6 km/h 92 % 0.0 mm
08:42 -8.2 °C -9.3 °C 1037.1 hPa Calm   1.6 km/h 92 % 0.0 mm
08:47 -8.1 °C -9.0 °C 1037.1 hPa Calm     93 % 0.0 mm
08:52 -8.1 °C -9.0 °C 1037.1 hPa Calm     93 % 0.0 mm
08:57 -8.1 °C -9.0 °C 1036.8 hPa Calm     93 % 0.0 mm
09:02 -8.1 °C -9.0 °C 1036.8 hPa Calm     93 % 0.0 mm
09:07 -8.0 °C -8.9 °C 1036.8 hPa Calm     93 % 0.0 mm
09:12 -7.8 °C -8.7 °C 1036.8 hPa Calm     93 % 0.0 mm
09:17 -7.4 °C -8.3 °C 1036.8 hPa Calm     93 % 0.0 mm
09:22 -7.0 °C -7.9 °C 1037.1 hPa Calm     93 % 0.0 mm
09:32 -6.8 °C -7.9 °C 1037.1 hPa Calm     92 % 0.0 mm
09:37 -6.4 °C -7.5 °C 1037.1 hPa Calm     92 % 0.0 mm
09:42 -5.8 °C -6.9 °C 1037.1 hPa Calm     92 % 0.0 mm
09:47 -5.8 °C -7.2 °C 1037.1 hPa Calm     90 % 0.0 mm
09:52 -5.5 °C -6.9 °C 1037.1 hPa Calm     90 % 0.0 mm
10:02 -5.4 °C -7.2 °C 1036.8 hPa Calm   1.6 km/h 87 % 0.0 mm
10:07 -5.6 °C -7.3 °C 1036.8 hPa Calm   1.6 km/h 88 % 0.0 mm
10:12 -5.4 °C -6.9 °C 1036.8 hPa Calm   1.6 km/h 89 % 0.0 mm
10:17 -5.1 °C -6.5 °C 1036.8 hPa Calm   1.6 km/h 90 % 0.0 mm
10:27 -4.0 °C -6.0 °C 1036.8 hPa Calm     86 % 0.0 mm
10:32 -3.7 °C -5.9 °C 1037.1 hPa Calm     85 % 0.0 mm
10:37 -3.2 °C -5.2 °C 1037.1 hPa Calm     86 % 0.0 mm
10:42 -3.1 °C -5.4 °C 1036.8 hPa Calm     84 % 0.0 mm
10:52 -2.6 °C -5.2 °C 1037.1 hPa Calm     82 % 0.0 mm
10:57 -2.6 °C -5.6 °C 1037.1 hPa Calm     80 % 0.0 mm
11:02 -3.1 °C -5.9 °C 1037.1 hPa Calm   1.6 km/h 81 % 0.0 mm
11:12 -3.1 °C -5.7 °C 1036.8 hPa Calm   1.6 km/h 82 % 0.0 mm
11:22 -2.9 °C -5.1 °C 1036.8 hPa Calm   3.2 km/h 85 % 0.0 mm
11:27 -2.8 °C -5.0 °C 1036.5 hPa Calm   3.2 km/h 85 % 0.0 mm
11:37 -2.6 °C -5.1 °C 1036.5 hPa SSE 1.6 km/h 3.2 km/h 83 % 0.0 mm
11:42 -2.4 °C -4.9 °C 1036.5 hPa South 4.8 km/h 4.8 km/h 83 % 0.0 mm
11:47 -2.3 °C -5.0 °C 1036.5 hPa South 3.2 km/h 6.4 km/h 82 % 0.0 mm
11:57 -2.2 °C -4.9 °C 1036.5 hPa Calm   6.4 km/h 82 % 0.0 mm
12:02 -1.9 °C -4.6 °C 1036.5 hPa SSW 1.6 km/h 4.8 km/h 82 % 0.0 mm
12:07 -1.7 °C -4.5 °C 1036.5 hPa Calm   4.8 km/h 81 % 0.0 mm
12:17 -1.7 °C -4.7 °C 1036.5 hPa SSE 1.6 km/h 3.2 km/h 80 % 0.0 mm
12:22 -1.8 °C -5.0 °C 1036.5 hPa SW 1.6 km/h 6.4 km/h 79 % 0.0 mm
12:27 -1.8 °C -4.6 °C 1036.5 hPa SW 1.6 km/h 6.4 km/h 81 % 0.0 mm
12:37 -1.7 °C -4.7 °C 1036.5 hPa South 1.6 km/h 4.8 km/h 80 % 0.0 mm
12:47 -1.3 °C -4.3 °C 1036.5 hPa SSW 1.6 km/h 4.8 km/h 80 % 0.0 mm
12:57 -1.2 °C -4.7 °C 1035.8 hPa SSW 4.8 km/h 6.4 km/h 77 % 0.0 mm
13:02 -1.0 °C -4.5 °C 1035.8 hPa SSW 4.8 km/h 6.4 km/h 77 % 0.0 mm
13:07 -1.0 °C -4.5 °C 1035.8 hPa SW 6.4 km/h 6.4 km/h 77 % 0.0 mm
13:12 -0.9 °C -4.4 °C 1035.8 hPa SSW 3.2 km/h 6.4 km/h 77 % 0.0 mm
13:17 -0.9 °C -4.6 °C 1036.1 hPa SSW 1.6 km/h 6.4 km/h 76 % 0.0 mm
13:27 -0.6 °C -4.3 °C 1035.8 hPa SSW 1.6 km/h 4.8 km/h 76 % 0.0 mm
13:32 -0.6 °C -4.3 °C 1035.4 hPa SSW 3.2 km/h 4.8 km/h 76 % 0.0 mm
13:37 -0.4 °C -3.9 °C 1035.4 hPa SSE 1.6 km/h 4.8 km/h 77 % 0.0 mm
13:42 -0.4 °C -4.1 °C 1035.8 hPa SSE 4.8 km/h 4.8 km/h 76 % 0.0 mm
13:47 -0.4 °C -4.3 °C 1035.4 hPa SSE 3.2 km/h 4.8 km/h 75 % 0.0 mm
13:52 -0.4 °C -4.5 °C 1035.4 hPa SSE 1.6 km/h 6.4 km/h 74 % 0.0 mm
13:57 -0.2 °C -4.6 °C 1035.8 hPa South 3.2 km/h 6.4 km/h 72 % 0.0 mm
14:02 -0.1 °C -4.5 °C 1035.4 hPa SW 3.2 km/h 6.4 km/h 72 % 0.0 mm
14:07 -0.2 °C -5.2 °C 1035.8 hPa Calm   4.8 km/h 69 % 0.0 mm
14:12 -0.1 °C -4.9 °C 1035.4 hPa Calm   4.8 km/h 70 % 0.0 mm
14:17 -0.1 °C -4.9 °C 1035.4 hPa SW 1.6 km/h 4.8 km/h 70 % 0.0 mm
14:22 0.1 °C -4.7 °C 1035.4 hPa SSW 1.6 km/h 3.2 km/h 70 % 0.0 mm
14:32 0.0 °C -4.4 °C 1035.4 hPa SW 3.2 km/h 4.8 km/h 72 % 0.0 mm
14:37 0.1 °C -4.3 °C 1035.4 hPa SSE 1.6 km/h 6.4 km/h 72 % 0.0 mm
14:42 0.1 °C -4.3 °C 1035.1 hPa SSE 1.6 km/h 6.4 km/h 72 % 0.0 mm
14:47 0.1 °C -4.3 °C 1035.1 hPa SW 3.2 km/h 6.4 km/h 72 % 0.0 mm
14:57 0.2 °C -3.9 °C 1035.1 hPa SW 3.2 km/h 8.0 km/h 74 % 0.0 mm
15:02 0.2 °C -4.3 °C 1035.1 hPa SSW 1.6 km/h 8.0 km/h 72 % 0.0 mm
15:07 0.2 °C -4.4 °C 1034.8 hPa SSW 3.2 km/h 8.0 km/h 71 % 0.0 mm
15:12 0.2 °C -4.4 °C 1034.8 hPa South 4.8 km/h 8.0 km/h 71 % 0.0 mm
15:22 0.2 °C -4.1 °C 1034.8 hPa SW 6.4 km/h 8.0 km/h 73 % 0.0 mm
15:52 0.3 °C -3.4 °C 1035.1 hPa Calm   3.2 km/h 76 % 0.0 mm
15:57 0.4 °C -3.2 °C 1035.1 hPa SSW 1.6 km/h 3.2 km/h 77 % 0.0 mm
16:02 0.3 °C -3.6 °C 1035.1 hPa SSW 3.2 km/h 3.2 km/h 75 % 0.0 mm
16:07 0.3 °C -3.8 °C 1035.1 hPa South 3.2 km/h 3.2 km/h 74 % 0.0 mm
16:12 0.3 °C -3.4 °C 1035.1 hPa South 1.6 km/h 4.8 km/h 76 % 0.0 mm
16:22 0.3 °C -3.4 °C 1035.1 hPa SSW 3.2 km/h 4.8 km/h 76 % 0.0 mm
16:27 0.3 °C -3.6 °C 1035.1 hPa SSW 1.6 km/h 4.8 km/h 75 % 0.0 mm
16:37 0.3 °C -3.4 °C 1035.1 hPa SSW 4.8 km/h 4.8 km/h 76 % 0.0 mm
16:42 0.3 °C -3.6 °C 1034.8 hPa SW 4.8 km/h 6.4 km/h 75 % 0.0 mm
16:52 0.3 °C -3.4 °C 1035.1 hPa SSW 3.2 km/h 6.4 km/h 76 % 0.0 mm
16:57 0.2 °C -3.7 °C 1035.1 hPa SSW 3.2 km/h 6.4 km/h 75 % 0.0 mm
17:02 0.2 °C -3.4 °C 1035.1 hPa South 1.6 km/h 6.4 km/h 77 % 0.0 mm
17:07 0.2 °C -3.4 °C 1034.8 hPa SSW 1.6 km/h 6.4 km/h 77 % 0.0 mm
17:12 0.1 °C -3.1 °C 1034.8 hPa SW 1.6 km/h 6.4 km/h 79 % 0.0 mm
17:17 0.1 °C -3.1 °C 1035.1 hPa Calm   6.4 km/h 79 % 0.0 mm
17:22 0.0 °C -2.9 °C 1034.8 hPa Calm   4.8 km/h 81 % 0.0 mm
17:27 0.0 °C -2.7 °C 1034.8 hPa Calm   4.8 km/h 82 % 0.0 mm
17:37 -0.1 °C -2.8 °C 1035.1 hPa Calm   1.6 km/h 82 % 0.0 mm
17:47 -0.1 °C -2.6 °C 1035.1 hPa Calm   1.6 km/h 83 % 0.0 mm
17:52 -0.1 °C -2.8 °C 1034.8 hPa Calm   1.6 km/h 82 % 0.0 mm
18:02 -0.1 °C -3.0 °C 1034.8 hPa Calm   1.6 km/h 81 % 0.0 mm
18:07 0.0 °C -2.9 °C 1034.8 hPa Calm   1.6 km/h 81 % 0.0 mm
18:12 0.0 °C -2.7 °C 1034.8 hPa Calm   1.6 km/h 82 % 0.0 mm
18:22 0.2 °C -1.9 °C 1034.8 hPa West 3.2 km/h 8.0 km/h 86 % 0.0 mm
18:32 0.1 °C -1.8 °C 1034.8 hPa WSW 3.2 km/h 11.3 km/h 87 % 0.0 mm
18:42 -0.3 °C -1.7 °C 1034.8 hPa SW 3.2 km/h 11.3 km/h 90 % 0.0 mm
18:47 -0.4 °C -1.5 °C 1034.8 hPa West 4.8 km/h 8.0 km/h 92 % 0.0 mm
18:57 -0.5 °C -1.5 °C 1034.8 hPa West 1.6 km/h 8.0 km/h 93 % 0.0 mm
19:07 -0.6 °C -1.6 °C 1034.8 hPa West 1.6 km/h 6.4 km/h 93 % 0.0 mm
19:12 -0.6 °C -1.6 °C 1034.8 hPa Calm   8.0 km/h 93 % 0.0 mm
19:22 -0.7 °C -1.7 °C 1034.8 hPa WSW 1.6 km/h 6.4 km/h 93 % 0.0 mm
19:27 -0.7 °C -1.7 °C 1034.8 hPa West 3.2 km/h 6.4 km/h 93 % 0.0 mm
19:32 -0.6 °C -1.6 °C 1034.8 hPa WSW 1.6 km/h 6.4 km/h 93 % 0.0 mm
19:37 -0.6 °C -1.6 °C 1034.8 hPa WSW 1.6 km/h 6.4 km/h 93 % 0.0 mm
19:42 -0.6 °C -1.7 °C 1034.8 hPa SW 3.2 km/h 4.8 km/h 92 % 0.0 mm
19:47 -0.6 °C -1.7 °C 1034.8 hPa WSW 1.6 km/h 4.8 km/h 92 % 0.0 mm
19:57 -0.6 °C -2.0 °C 1034.8 hPa SSW 3.2 km/h 8.0 km/h 90 % 0.0 mm
20:07 -0.4 °C -2.0 °C 1034.8 hPa SW 1.6 km/h 6.4 km/h 89 % 0.0 mm
20:12 -0.4 °C -2.1 °C 1034.8 hPa SW 1.6 km/h 6.4 km/h 88 % 0.0 mm
20:17 -0.4 °C -2.1 °C 1034.8 hPa SW 3.2 km/h 6.4 km/h 88 % 0.0 mm
20:22 -0.4 °C -2.3 °C 1034.8 hPa SSW 1.6 km/h 4.8 km/h 87 % 0.0 mm
20:27 -0.3 °C -2.2 °C 1034.8 hPa SW 1.6 km/h 4.8 km/h 87 % 0.0 mm
20:37 -0.2 °C -2.3 °C 1034.8 hPa WSW 9.7 km/h 9.7 km/h 86 % 0.0 mm
20:47 -0.1 °C -2.2 °C 1034.8 hPa SW 3.2 km/h 11.3 km/h 86 % 0.0 mm
20:52 -0.2 °C -2.1 °C 1034.8 hPa SW 3.2 km/h 11.3 km/h 87 % 0.0 mm
21:02 -0.2 °C -2.1 °C 1034.8 hPa WSW 6.4 km/h 11.3 km/h 87 % 0.0 mm
21:12 -0.2 °C -2.1 °C 1034.4 hPa WSW 3.2 km/h 14.5 km/h 87 % 0.0 mm
21:17 -0.2 °C -2.1 °C 1034.4 hPa West 9.7 km/h 12.9 km/h 87 % 0.0 mm
21:22 -0.2 °C -1.8 °C 1034.4 hPa WSW 6.4 km/h 12.9 km/h 89 % 0.0 mm
21:27 -0.2 °C -1.6 °C 1034.4 hPa WSW 1.6 km/h 11.3 km/h 90 % 0.0 mm
21:32 -0.3 °C -1.6 °C 1034.4 hPa Calm   9.7 km/h 91 % 0.0 mm
21:37 -0.3 °C -1.6 °C 1034.4 hPa SW 3.2 km/h 8.0 km/h 91 % 0.0 mm
21:42 -0.3 °C -1.6 °C 1034.4 hPa Calm   6.4 km/h 91 % 0.0 mm
21:47 -0.3 °C -1.4 °C 1034.4 hPa Calm   9.7 km/h 92 % 0.0 mm
21:52 -0.3 °C -1.4 °C 1034.4 hPa West 3.2 km/h 9.7 km/h 92 % 0.0 mm
21:57 -0.2 °C -1.5 °C 1034.4 hPa West 4.8 km/h 9.7 km/h 91 % 0.0 mm
22:07 -0.2 °C -1.5 °C 1034.4 hPa WSW 3.2 km/h 8.0 km/h 91 % 0.0 mm
22:12 -0.2 °C -1.6 °C 1034.4 hPa Calm   8.0 km/h 90 % 0.0 mm
22:17 -0.2 °C -1.6 °C 1034.4 hPa WSW 3.2 km/h 6.4 km/h 90 % 0.0 mm
22:22 -0.2 °C -1.6 °C 1034.4 hPa SW 1.6 km/h 8.0 km/h 90 % 0.0 mm
22:32 -0.3 °C -1.7 °C 1034.4 hPa Calm   8.0 km/h 90 % 0.0 mm
22:37 -0.3 °C -1.6 °C 1034.4 hPa West 1.6 km/h 4.8 km/h 91 % 0.0 mm
22:47 -0.4 °C -1.5 °C 1034.4 hPa WSW 1.6 km/h 6.4 km/h 92 % 0.0 mm
22:52 -0.4 °C -1.4 °C 1034.4 hPa WSW 4.8 km/h 6.4 km/h 93 % 0.0 mm
22:57 -0.5 °C -1.5 °C 1034.4 hPa WSW 1.6 km/h 9.7 km/h 93 % 0.0 mm
23:07 -0.6 °C -1.4 °C 1033.7 hPa SSW 6.4 km/h 9.7 km/h 94 % 0.0 mm
23:12 -0.6 °C -1.3 °C 1034.1 hPa WSW 3.2 km/h 9.7 km/h 95 % 0.0 mm
23:17 -0.6 °C -1.3 °C 1034.1 hPa WSW 3.2 km/h 9.7 km/h 95 % 0.0 mm
23:27 -0.6 °C -1.3 °C 1034.1 hPa Calm   8.0 km/h 95 % 0.0 mm
23:32 -0.5 °C -1.2 °C 1034.1 hPa WSW 1.6 km/h 4.8 km/h 95 % 0.0 mm
23:37 -0.4 °C -1.1 °C 1034.1 hPa Calm   4.8 km/h 95 % 0.0 mm
23:42 -0.4 °C -1.1 °C 1034.1 hPa SW 3.2 km/h 4.8 km/h 95 % 0.0 mm
23:52 -0.3 °C -1.0 °C 1034.1 hPa Calm   3.2 km/h 95 % 0.0 mm
Meteo18
Compliments of Weather Underground - 4 mb

Script developed by  Jim McMurry - jmcmurry@mwt.net Adapted for the template by  Wim van der Kuil - Leuven-Template.eu

You find our weather info also at:

European Weather Network

Weather Underground

Equipment we use:

Weather-station
Davis Vue

Weather-program
Meteohub

Weather-server
Raspberry PI 2 B+

Provider
1 and 1

Davis Vue

Meteohub

Raspberry PI 2 B+

1 and 1